Kezdőlap
METAR-TAF:

METAR-TAF

Repülőterek :

Kuopio, Finnország

földrajzi szélesség: 63-01N, földrajzi hosszúság: 027-48E, magasság: 98 m

Jelenlegi meteorológiai megfigyelések

A jelentés 38 perccel ezelõtt készült, 11:50 UTC
Különbözõ irányokból fújó szél 2 kt
Hőmérséklet 4°C
Páratartalom 70%
Légköri nyomás 992 hPa
Látótávolság 10 km, vagy több
Szórványos felhőzet 2500 lábon

METAR: EFKU 231150Z VRB02KT 9999 SCT025 04/M01 Q0992

Idő: 15:28 (12:28 UTC)

Előrejelzés

A jelentés 55 perccel ezelõtt készült, 11:33 UTC
Az előrejelzés 23-én 12 óra UTC és 24-én 12 óra UTC között érvényes
Délnyugati szél 5 kt
Látótávolság 10 km, vagy több
Szakadozott felhőzet 2500 lábon
24-én 03 óra UTC és 24-én 10 óra UTC között ideiglenes
Szakadozott felhőzet 800 lábon

TAF: EFKU 231133Z 2312/2412 22005KT 9999 BKN025 TEMPO 2403/2410 BKN008

Meteorológiai megfigyelések és előrejelzések több, mint 4000 repülőtéren (METAR és TAF jelentéseket).

A térképen piros és sárga pontok jelzik az elérhető meteorológiai állomásokat.

Mozgassa az egeret a pont fölött, hogy megjelenjen az állomás neve.

Azután kattintson az időjárási megfigyelések és előrejelzések megtekintéséhez.

A térkép megváltoztatása: kattintson a fekete keresztel jelölt zöld gombra ráközelítéshez, a vonallal jelölt zöld gombra távolításhoz, vagy a zöld nyilakra a szomszédos térképek eléréséhez.


METAR-TAF: